Time;durP1;ratioP1;P1;durP2;ratioP2;P2;SDS_P1;SDS_P2;PMS_P1;PMS_P2;Temp;Humidity;BMP_temperature;BMP_pressure;BME280_temperature;BME280_humidity;BME280_pressure;Samples;Min_cycle;Max_cycle;Signal;HPM_P1;HPM_P2
2023/08/08 00:01:26;;;;;;;7.50;2.67;;;;;;;14.07;100.00;101577.50;5288514;28;20104;-71
2023/08/08 00:03:56;;;;;;;8.18;3.17;;;;;;;14.05;100.00;101575.97;5287841;28;20027;-72
2023/08/08 00:06:27;;;;;;;13.38;3.15;;;;;;;14.04;100.00;101571.59;5287527;28;20100;-72
2023/08/08 00:08:57;;;;;;;7.13;2.38;;;;;;;13.98;100.00;101575.81;5284347;28;20023;-72
2023/08/08 00:11:27;;;;;;;7.22;2.70;;;;;;;13.94;100.00;101574.47;5281060;28;20481;-72
2023/08/08 00:13:58;;;;;;;9.43;2.88;;;;;;;14.12;100.00;101568.88;5287470;28;20019;-72
2023/08/08 00:16:28;;;;;;;10.00;2.90;;;;;;;14.01;100.00;101575.50;5287168;28;20019;-72
2023/08/08 00:18:59;;;;;;;9.88;2.67;;;;;;;14.00;100.00;101571.91;5287485;28;20028;-71
2023/08/08 00:21:29;;;;;;;10.45;2.65;;;;;;;13.92;100.00;101566.56;5287282;28;20019;-72
2023/08/08 00:24:00;;;;;;;8.30;2.85;;;;;;;13.83;100.00;101572.13;5287405;28;20031;-72
2023/08/08 00:26:30;;;;;;;6.50;2.58;;;;;;;13.80;100.00;101567.91;5286944;28;20035;-71
2023/08/08 00:29:01;;;;;;;11.73;2.65;;;;;;;13.76;100.00;101558.50;5273782;28;20515;-72
2023/08/08 00:31:31;;;;;;;12.13;2.90;;;;;;;13.74;100.00;101568.59;5287321;28;20106;-72
2023/08/08 00:34:02;;;;;;;10.07;2.95;;;;;;;13.68;100.00;101569.28;5286803;28;20027;-72
2023/08/08 00:36:32;;;;;;;13.23;3.53;;;;;;;13.69;100.00;101563.69;5286719;28;20023;-71
2023/08/08 00:39:03;;;;;;;7.82;2.72;;;;;;;13.68;100.00;101570.09;5287424;28;20114;-72
2023/08/08 00:41:33;;;;;;;7.32;2.90;;;;;;;13.65;100.00;101567.72;5287173;28;20019;-72
2023/08/08 00:44:04;;;;;;;6.70;2.63;;;;;;;13.64;100.00;101566.06;5287173;28;20031;-72
2023/08/08 00:46:34;;;;;;;12.27;3.70;;;;;;;13.62;100.00;101561.88;5272446;28;20121;-71
2023/08/08 00:49:05;;;;;;;7.43;2.95;;;;;;;13.69;100.00;101558.31;5287164;28;20497;-72
2023/08/08 00:51:36;;;;;;;9.70;3.03;;;;;;;13.70;100.00;101553.75;5286807;28;20059;-72
2023/08/08 00:54:07;;;;;;;11.65;3.08;;;;;;;13.69;100.00;101552.91;5287153;28;20030;-72
2023/08/08 00:56:37;;;;;;;13.32;3.10;;;;;;;13.68;100.00;101559.31;5286639;28;20092;-72
2023/08/08 00:59:10;;;;;;;12.32;3.55;;;;;;;13.67;100.00;101557.66;5286040;28;20024;-72
2023/08/08 01:01:41;;;;;;;8.68;3.00;;;;;;;13.61;100.00;101554.78;5287155;28;20023;-71
2023/08/08 01:04:12;;;;;;;18.13;4.45;;;;;;;13.62;100.00;101556.47;5287002;28;20038;-72
2023/08/08 01:06:57;;;;;;;7.53;3.50;;;;;;;13.58;100.00;101552.41;5286458;28;20057;-72
2023/08/08 01:09:48;;;;;;;18.10;3.45;;;;;;;13.62;100.00;101551.91;5286414;28;20393;-72
2023/08/08 01:12:20;;;;;;;13.60;3.33;;;;;;;13.65;100.00;101550.72;5282645;28;20489;-72
2023/08/08 01:14:51;;;;;;;9.27;3.30;;;;;;;13.65;100.00;101551.56;5288734;27;20028;-72
2023/08/08 01:17:22;;;;;;;15.00;4.63;;;;;;;13.62;100.00;101556.47;5288891;27;20030;-71
2023/08/08 01:19:53;;;;;;;11.50;3.95;;;;;;;13.64;100.00;101557.13;5285988;28;20094;-72
2023/08/08 01:22:29;;;;;;;13.82;4.00;;;;;;;13.56;100.00;101549.91;5272662;28;20027;-71
2023/08/08 01:25:01;;;;;;;13.98;3.55;;;;;;;13.59;100.00;101549.53;5285654;28;20034;-72
2023/08/08 01:27:31;;;;;;;14.50;3.83;;;;;;;13.59;100.00;101546.84;5286107;28;20031;-71
2023/08/08 01:30:03;;;;;;;17.13;4.05;;;;;;;13.58;100.00;101544.34;5283565;28;20382;-71
2023/08/08 01:32:34;;;;;;;16.10;3.78;;;;;;;13.53;100.00;101554.78;5265060;28;20028;-72
2023/08/08 01:35:05;;;;;;;8.18;3.53;;;;;;;13.52;100.00;101542.31;5282967;28;20385;-71
2023/08/08 01:37:43;;;;;;;11.45;3.95;;;;;;;13.51;100.00;101544.19;5286117;28;20484;-72
2023/08/08 01:40:16;;;;;;;10.98;3.67;;;;;;;13.51;100.00;101544.19;5286284;28;20094;-72
2023/08/08 01:42:48;;;;;;;16.45;4.00;;;;;;;13.49;100.00;101538.09;5285634;28;20023;-71
2023/08/08 01:45:19;;;;;;;11.73;4.18;;;;;;;13.44;100.00;101541.28;5277783;28;20057;-71
2023/08/08 01:47:52;;;;;;;16.95;4.57;;;;;;;13.41;100.00;101540.81;5280720;28;20023;-71
2023/08/08 01:50:22;;;;;;;21.65;4.68;;;;;;;13.44;100.00;101535.06;5285894;28;20485;-72
2023/08/08 01:52:54;;;;;;;16.77;3.63;;;;;;;13.62;100.00;101535.75;5285905;28;20023;-71
2023/08/08 01:55:24;;;;;;;15.73;4.63;;;;;;;13.62;100.00;101535.75;5285708;28;20031;-72
2023/08/08 01:57:55;;;;;;;13.82;4.45;;;;;;;13.61;100.00;101533.22;5271993;28;20467;-71
2023/08/08 02:00:26;;;;;;;13.82;3.92;;;;;;;13.53;100.00;101533.22;5286226;28;20027;-72
2023/08/08 02:02:58;;;;;;;14.65;5.38;;;;;;;13.53;100.00;101530.50;5285730;28;20106;-72
2023/08/08 02:05:28;;;;;;;20.45;4.38;;;;;;;13.54;100.00;101533.03;5285614;28;20024;-72
2023/08/08 02:07:59;;;;;;;9.27;4.03;;;;;;;13.56;100.00;101527.50;5285369;28;20037;-72
2023/08/08 02:10:29;;;;;;;13.02;3.88;;;;;;;13.56;100.00;101533.72;5285282;28;20026;-72
2023/08/08 02:13:00;;;;;;;15.15;4.47;;;;;;;13.50;100.00;101528.16;5285767;28;20388;-72
2023/08/08 02:15:32;;;;;;;9.63;4.70;;;;;;;13.48;100.00;101529.16;5289895;27;20552;-72
2023/08/08 02:18:04;;;;;;;40.22;4.80;;;;;;;13.46;100.00;101522.28;5285144;28;20063;-72
2023/08/08 02:20:34;;;;;;;12.68;4.10;;;;;;;13.42;100.00;101523.63;5271807;28;20024;-72
2023/08/08 02:23:05;;;;;;;17.00;4.72;;;;;;;13.41;100.00;101521.94;5285615;28;20329;-72
2023/08/08 02:25:38;;;;;;;12.05;4.68;;;;;;;13.39;100.00;101529.34;5285380;28;20027;-71
2023/08/08 02:28:09;;;;;;;16.80;4.53;;;;;;;13.40;100.00;101517.53;5285780;28;20039;-72
2023/08/08 02:30:41;;;;;;;18.98;5.20;;;;;;;13.42;100.00;101526.31;5285387;28;20030;-72
2023/08/08 02:33:11;;;;;;;20.25;5.32;;;;;;;13.37;100.00;101517.88;5285439;28;20438;-71
2023/08/08 02:35:42;;;;;;;18.23;5.05;;;;;;;13.36;100.00;101525.13;5285204;28;20032;-71
2023/08/08 02:38:13;;;;;;;23.90;5.43;;;;;;;13.37;100.00;101520.59;5271291;28;20054;-71
2023/08/08 02:40:43;;;;;;;15.57;5.07;;;;;;;13.40;100.00;101509.44;5289972;28;20015;-72
2023/08/08 02:43:14;;;;;;;42.03;5.75;;;;;;;13.38;100.00;101506.09;5289445;28;20041;-72
2023/08/08 02:45:44;;;;;;;18.45;6.53;;;;;;;13.37;100.00;101510.63;5289304;28;20035;-72
2023/08/08 02:48:15;;;;;;;25.33;5.43;;;;;;;13.36;100.00;101500.03;5289957;28;20023;-72
2023/08/08 02:50:45;;;;;;;11.88;4.50;;;;;;;13.36;100.00;101497.34;5289461;28;20277;-72
2023/08/08 02:53:16;;;;;;;17.60;4.50;;;;;;;13.32;100.00;101504.06;5290144;28;20023;-71
2023/08/08 02:55:47;;;;;;;11.07;4.47;;;;;;;13.36;100.00;101503.56;5270846;28;20264;-72
2023/08/08 02:58:17;;;;;;;14.73;5.10;;;;;;;13.35;100.00;101506.41;5289503;28;20019;-71
2023/08/08 03:00:48;;;;;;;19.25;5.70;;;;;;;13.35;100.00;101501.03;5271390;28;20442;-72
2023/08/08 03:03:18;;;;;;;20.95;5.38;;;;;;;13.31;100.00;101499.69;5271440;28;20027;-71
2023/08/08 03:05:49;;;;;;;19.40;5.63;;;;;;;13.28;100.00;101497.34;5289112;28;20019;-71
2023/08/08 03:08:20;;;;;;;16.08;5.32;;;;;;;13.25;100.00;101500.34;5278042;28;20030;-71
2023/08/08 03:10:50;;;;;;;16.08;5.88;;;;;;;13.23;100.00;101505.06;5286561;28;20198;-71
2023/08/08 03:13:22;;;;;;;20.00;4.95;;;;;;;13.25;100.00;101500.34;5289459;28;20045;-71
2023/08/08 03:15:52;;;;;;;27.85;5.60;;;;;;;13.22;100.00;101501.53;5283735;27;20339;-72
2023/08/08 03:18:24;;;;;;;13.50;5.40;;;;;;;13.29;100.00;101497.16;5289055;28;20481;-72
2023/08/08 03:20:55;;;;;;;18.48;5.40;;;;;;;13.31;100.00;101497.00;5288975;28;20054;-72
2023/08/08 03:23:25;;;;;;;21.23;5.25;;;;;;;13.30;100.00;101488.06;5274952;28;20070;-72
2023/08/08 03:25:56;;;;;;;26.90;5.68;;;;;;;13.30;100.00;101490.75;5288592;28;20015;-71
2023/08/08 03:28:26;;;;;;;20.92;5.60;;;;;;;13.25;100.00;101495.81;5275504;28;20035;-71
2023/08/08 03:30:57;;;;;;;16.20;5.72;;;;;;;13.23;100.00;101488.91;5278970;28;20111;-72
2023/08/08 03:33:27;;;;;;;16.92;5.55;;;;;;;13.24;100.00;101487.91;5283739;28;20024;-71
2023/08/08 03:35:58;;;;;;;18.77;5.68;;;;;;;13.20;100.00;101488.22;5287337;28;20469;-71
2023/08/08 03:38:28;;;;;;;19.35;5.65;;;;;;;13.19;100.00;101494.59;5286826;28;20019;-72
2023/08/08 03:40:59;;;;;;;25.25;5.30;;;;;;;13.19;100.00;101489.19;5288396;28;20020;-71
2023/08/08 03:43:30;;;;;;;19.00;5.47;;;;;;;13.17;100.00;101491.25;5286352;28;20020;-72
2023/08/08 03:46:00;;;;;;;19.75;5.50;;;;;;;13.16;100.00;101491.41;5286586;28;20020;-72
2023/08/08 03:48:31;;;;;;;22.05;6.25;;;;;;;13.17;100.00;101493.09;5275149;28;20027;-72
2023/08/08 03:51:02;;;;;;;16.90;5.15;;;;;;;13.14;100.00;101494.25;5286597;28;20403;-72
2023/08/08 03:53:33;;;;;;;20.85;5.05;;;;;;;13.04;100.00;101487.34;5287855;28;20469;-72
2023/08/08 03:56:03;;;;;;;18.52;5.30;;;;;;;13.07;100.00;101489.72;5286064;28;20259;-72
2023/08/08 03:58:34;;;;;;;15.98;5.30;;;;;;;13.09;100.00;101491.22;5287556;28;20396;-72
2023/08/08 04:01:04;;;;;;;27.27;5.90;;;;;;;13.13;100.00;101492.56;5286488;28;20012;-72
2023/08/08 04:03:35;;;;;;;15.20;5.80;;;;;;;13.10;100.00;101482.16;5287672;28;20023;-72
2023/08/08 04:06:05;;;;;;;22.95;6.13;;;;;;;13.09;100.00;101487.69;5286265;28;20605;-72
2023/08/08 04:08:36;;;;;;;19.60;5.15;;;;;;;13.07;100.00;101487.03;5274398;28;20026;-72
2023/08/08 04:11:06;;;;;;;24.40;6.10;;;;;;;13.07;100.00;101487.88;5287427;28;20015;-71
2023/08/08 04:13:37;;;;;;;21.85;5.53;;;;;;;13.06;100.00;101483.50;5274555;28;20027;-72
2023/08/08 04:16:07;;;;;;;23.92;6.18;;;;;;;13.03;100.00;101481.13;5287590;28;20055;-72
2023/08/08 04:18:38;;;;;;;23.73;6.32;;;;;;;12.99;100.00;101479.75;5285152;28;20493;-72
2023/08/08 04:21:08;;;;;;;24.60;6.45;;;;;;;13.04;100.00;101468.50;5276622;28;20027;-72
2023/08/08 04:23:38;;;;;;;22.38;5.70;;;;;;;13.01;100.00;101467.00;5283432;28;20024;-72
2023/08/08 04:26:09;;;;;;;26.13;6.47;;;;;;;12.99;100.00;101466.28;5278127;28;20433;-72
2023/08/08 04:28:39;;;;;;;22.83;6.78;;;;;;;12.98;100.00;101467.31;5287553;28;20068;-72
2023/08/08 04:31:10;;;;;;;21.92;6.35;;;;;;;12.98;100.00;101464.63;5287684;28;20049;-72
2023/08/08 04:33:40;;;;;;;22.73;6.55;;;;;;;12.98;100.00;101472.69;5287094;28;20031;-72
2023/08/08 04:36:11;;;;;;;29.25;7.30;;;;;;;13.19;100.00;101473.03;5287034;28;20020;-72
2023/08/08 04:38:42;;;;;;;16.88;6.10;;;;;;;13.22;100.00;101474.59;5287700;28;20500;-72
2023/08/08 04:41:12;;;;;;;29.17;7.13;;;;;;;13.25;100.00;101473.41;5284182;28;20222;-72
2023/08/08 04:43:43;;;;;;;28.67;7.13;;;;;;;13.25;100.00;101470.72;5284148;28;20011;-72
2023/08/08 04:46:13;;;;;;;16.02;6.20;;;;;;;13.26;100.00;101470.56;5285865;28;20024;-72
2023/08/08 04:48:44;;;;;;;30.98;8.13;;;;;;;13.29;100.00;101475.59;5287376;28;20023;-72
2023/08/08 04:51:14;;;;;;;24.63;7.30;;;;;;;13.29;100.00;101478.28;5287017;28;20027;-72
2023/08/08 04:53:45;;;;;;;17.95;7.15;;;;;;;13.29;100.00;101480.16;5287291;28;20022;-72
2023/08/08 04:56:15;;;;;;;26.42;7.00;;;;;;;13.31;100.00;101475.44;5286868;28;20024;-72
2023/08/08 04:58:46;;;;;;;22.23;7.15;;;;;;;13.32;100.00;101469.03;5286035;28;20413;-72
2023/08/08 05:01:17;;;;;;;20.55;7.07;;;;;;;13.35;100.00;101474.91;5286966;28;20380;-72
2023/08/08 05:03:48;;;;;;;25.50;7.05;;;;;;;13.39;100.00;101476.28;5287447;28;20027;-72
2023/08/08 05:06:18;;;;;;;19.23;6.95;;;;;;;13.42;100.00;101470.56;5286727;28;20118;-72
2023/08/08 05:08:51;;;;;;;22.98;5.85;;;;;;;13.48;100.00;101477.94;5286666;28;20030;-72
2023/08/08 05:11:22;;;;;;;23.75;6.05;;;;;;;13.54;100.00;101471.03;5286546;28;20169;-72
2023/08/08 05:13:52;;;;;;;21.40;6.00;;;;;;;13.59;100.00;101475.91;5286803;28;20031;-72
2023/08/08 05:16:24;;;;;;;22.83;6.25;;;;;;;13.58;100.00;101468.84;5276297;28;20103;-72
2023/08/08 05:18:54;;;;;;;30.73;8.27;;;;;;;13.68;100.00;101474.91;5283995;28;20064;-72
2023/08/08 05:21:25;;;;;;;22.40;5.63;;;;;;;13.71;100.00;101474.56;5286806;28;20110;-72
2023/08/08 05:23:55;;;;;;;25.10;5.93;;;;;;;13.77;100.00;101478.44;5286358;28;20054;-72
2023/08/08 05:26:27;;;;;;;28.77;6.80;;;;;;;13.80;100.00;101480.75;5286200;28;20509;-72
2023/08/08 05:28:57;;;;;;;19.40;6.10;;;;;;;13.84;100.00;101484.81;5286258;28;20087;-72
2023/08/08 05:31:28;;;;;;;18.75;5.50;;;;;;;13.87;100.00;101479.91;5272764;28;20024;-72
2023/08/08 05:33:58;;;;;;;24.23;5.55;;;;;;;13.94;100.00;101475.50;5278139;28;20053;-72
2023/08/08 05:36:29;;;;;;;22.80;6.00;;;;;;;14.02;100.00;101490.00;5278595;28;20026;-72
2023/08/08 05:38:59;;;;;;;24.25;5.68;;;;;;;14.07;100.00;101490.31;5256286;28;20472;-72
2023/08/08 05:41:29;;;;;;;23.88;5.38;;;;;;;14.16;100.00;101489.28;5272819;28;20027;-72
2023/08/08 05:44:00;;;;;;;22.55;5.32;;;;;;;14.25;100.00;101483.66;5286417;28;20064;-72
2023/08/08 05:46:30;;;;;;;30.00;6.00;;;;;;;14.36;100.00;101500.50;5285291;28;20031;-73
2023/08/08 05:49:01;;;;;;;18.13;5.32;;;;;;;14.45;100.00;101504.81;5274240;28;20028;-72
2023/08/08 05:51:31;;;;;;;20.67;6.00;;;;;;;14.55;100.00;101507.34;5284305;28;20028;-73
2023/08/08 05:54:02;;;;;;;22.75;5.30;;;;;;;14.69;100.00;101510.16;5286411;28;20024;-72
2023/08/08 05:56:36;;;;;;;20.65;5.47;;;;;;;14.83;100.00;101507.72;5285634;28;20031;-72
2023/08/08 05:59:06;;;;;;;15.73;5.32;;;;;;;14.96;100.00;101513.34;5285605;28;20019;-73
2023/08/08 06:01:37;;;;;;;21.13;5.85;;;;;;;15.11;100.00;101510.72;5286369;28;20373;-72
2023/08/08 06:04:07;;;;;;;17.20;5.00;;;;;;;15.39;100.00;101511.88;5286093;28;20438;-72
2023/08/08 06:06:38;;;;;;;11.07;4.38;;;;;;;15.76;100.00;101512.91;5285701;28;20027;-72
2023/08/08 06:09:08;;;;;;;17.48;4.28;;;;;;;16.45;100.00;101510.78;5285857;28;20399;-72
2023/08/08 06:11:39;;;;;;;16.80;4.13;;;;;;;16.88;100.00;101516.34;5285076;28;20441;-71
2023/08/08 06:14:09;;;;;;;18.77;4.10;;;;;;;17.13;100.00;101519.53;5285939;28;20030;-71
2023/08/08 06:16:41;;;;;;;12.30;3.63;;;;;;;17.28;100.00;101516.75;5285509;28;20016;-71
2023/08/08 06:19:13;;;;;;;10.43;3.15;;;;;;;17.50;100.00;101509.44;5285769;28;20024;-71
2023/08/08 06:21:44;;;;;;;13.23;3.90;;;;;;;17.48;100.00;101508.81;5286016;28;20380;-71
2023/08/08 06:24:14;;;;;;;16.27;3.47;;;;;;;17.38;100.00;101502.88;5285474;28;20023;-71
2023/08/08 06:26:45;;;;;;;16.58;4.22;;;;;;;17.33;100.00;101514.31;5285228;28;20030;-71
2023/08/08 06:29:15;;;;;;;18.02;3.47;;;;;;;17.30;100.00;101510.09;5285917;28;20052;-71
2023/08/08 06:31:46;;;;;;;15.02;4.05;;;;;;;17.12;100.00;101517.00;5272096;28;20497;-71
2023/08/08 06:34:16;;;;;;;11.48;3.00;;;;;;;17.13;100.00;101514.09;5285662;28;20029;-71
2023/08/08 06:36:47;;;;;;;18.58;4.50;;;;;;;17.12;100.00;101520.56;5284862;28;20027;-71
2023/08/08 06:39:21;;;;;;;13.57;4.57;;;;;;;17.15;100.00;101512.03;5274032;28;20024;-71
2023/08/08 06:41:51;;;;;;;12.23;3.70;;;;;;;16.94;100.00;101515.56;5284202;28;20023;-71
2023/08/08 06:44:22;;;;;;;15.30;3.60;;;;;;;17.00;100.00;101506.66;5285933;28;20413;-71
2023/08/08 06:46:52;;;;;;;14.48;3.90;;;;;;;17.18;100.00;101511.66;5284674;28;20023;-71
2023/08/08 06:49:23;;;;;;;20.75;3.90;;;;;;;17.92;100.00;101503.09;5285634;28;20024;-71
2023/08/08 06:51:53;;;;;;;9.85;3.58;;;;;;;18.47;100.00;101506.75;5285543;28;20027;-71
2023/08/08 06:54:24;;;;;;;16.30;3.40;;;;;;;18.81;100.00;101510.47;5285650;28;20042;-71
2023/08/08 06:56:56;;;;;;;11.02;2.90;;;;;;;18.91;100.00;101512.78;5285216;28;20084;-71
2023/08/08 06:59:27;;;;;;;13.85;3.00;;;;;;;18.84;100.00;101524.50;5285041;28;20498;-71
2023/08/08 07:01:57;;;;;;;15.80;3.22;;;;;;;18.56;100.00;101516.41;5285649;28;20028;-71
2023/08/08 07:04:28;;;;;;;16.02;3.88;;;;;;;18.66;100.00;101516.03;5286109;28;20426;-71
2023/08/08 07:06:58;;;;;;;11.13;3.45;;;;;;;18.53;100.00;101510.56;5285091;28;20022;-71
2023/08/08 07:09:29;;;;;;;12.38;3.33;;;;;;;18.44;100.00;101507.16;5285323;28;20027;-71
2023/08/08 07:11:59;;;;;;;17.40;3.30;;;;;;;18.56;100.00;101501.97;5284503;28;20496;-70
2023/08/08 07:14:30;;;;;;;13.95;3.33;;;;;;;18.57;100.00;101496.31;5285429;28;20028;-71
2023/08/08 07:17:03;;;;;;;10.85;3.03;;;;;;;18.43;100.00;101499.22;5284822;28;20532;-70
2023/08/08 07:19:36;;;;;;;14.73;3.55;;;;;;;18.49;100.00;101493.81;5285418;28;20053;-71
2023/08/08 07:22:08;;;;;;;16.98;3.10;;;;;;;18.42;100.00;101497.53;5285820;28;20035;-71
2023/08/08 07:24:38;;;;;;;9.50;3.03;;;;;;;18.40;100.00;101494.19;5277203;28;20336;-71
2023/08/08 07:27:09;;;;;;;10.55;2.88;;;;;;;18.46;100.00;101493.38;5268559;28;20103;-70
2023/08/08 07:29:40;;;;;;;25.85;4.55;;;;;;;18.77;100.00;101485.56;5289031;28;20201;-70
2023/08/08 07:32:10;;;;;;;15.10;4.00;;;;;;;19.24;100.00;101491.09;5288991;28;20060;-70
2023/08/08 07:34:41;;;;;;;12.45;2.88;;;;;;;19.20;100.00;101487.97;5274951;28;20036;-70
2023/08/08 07:37:11;;;;;;;15.45;3.60;;;;;;;19.00;100.00;101484.38;5288065;28;20024;-70
2023/08/08 07:39:42;;;;;;;12.10;2.90;;;;;;;18.79;100.00;101486.22;5288501;28;20030;-71
2023/08/08 07:42:12;;;;;;;8.65;2.80;;;;;;;18.66;100.00;101483.41;5288678;28;20618;-70
2023/08/08 07:44:43;;;;;;;15.15;2.80;;;;;;;18.58;100.00;101491.75;5288642;28;20084;-70
2023/08/08 07:47:13;;;;;;;13.25;3.10;;;;;;;18.44;100.00;101500.91;5287820;28;20020;-71
2023/08/08 07:49:44;;;;;;;12.18;2.95;;;;;;;18.54;100.00;101491.31;5274606;28;20019;-71
2023/08/08 07:52:14;;;;;;;19.80;3.33;;;;;;;18.60;100.00;101493.22;5276322;28;20074;-70
2023/08/08 07:54:45;;;;;;;9.60;3.42;;;;;;;18.52;100.00;101487.13;5286660;28;20657;-70
2023/08/08 07:57:15;;;;;;;13.48;3.35;;;;;;;18.49;100.00;101488.38;5288396;28;20118;-71
2023/08/08 07:59:46;;;;;;;23.88;3.60;;;;;;;18.51;100.00;101477.28;5287946;28;20008;-70
2023/08/08 08:02:16;;;;;;;19.88;3.17;;;;;;;18.43;100.00;101489.19;5288252;28;20028;-70
2023/08/08 08:04:47;;;;;;;15.68;3.10;;;;;;;18.41;100.00;101484.97;5288189;28;20027;-70
2023/08/08 08:07:17;;;;;;;16.40;3.90;;;;;;;18.22;100.00;101479.25;5285404;28;20019;-70
2023/08/08 08:09:47;;;;;;;10.18;3.08;;;;;;;18.41;100.00;101476.84;5276573;28;20469;-70
2023/08/08 08:12:19;;;;;;;19.65;4.43;;;;;;;18.53;100.00;101491.53;5273484;28;20492;-70
2023/08/08 08:14:50;;;;;;;18.70;3.85;;;;;;;18.70;100.00;101487.44;5288000;28;20464;-70
2023/08/08 08:17:20;;;;;;;12.75;3.17;;;;;;;18.74;100.00;101485.16;5287654;28;20020;-70
2023/08/08 08:19:51;;;;;;;13.13;4.13;;;;;;;18.57;100.00;101485.47;5288117;28;20522;-70
2023/08/08 08:22:21;;;;;;;13.10;3.05;;;;;;;18.68;100.00;101483.22;5287730;28;20024;-70
2023/08/08 08:24:52;;;;;;;10.13;3.08;;;;;;;18.77;100.00;101484.72;5287053;28;20441;-70
2023/08/08 08:27:22;;;;;;;18.65;4.18;;;;;;;18.94;100.00;101485.19;5287500;28;20096;-70
2023/08/08 08:29:53;;;;;;;13.35;3.85;;;;;;;19.10;100.00;101485.63;5287418;28;20085;-70
2023/08/08 08:32:23;;;;;;;9.65;3.58;;;;;;;19.15;100.00;101482.31;5287692;28;20023;-70
2023/08/08 08:34:54;;;;;;;12.95;3.40;;;;;;;19.53;100.00;101490.72;5287163;28;20514;-70
2023/08/08 08:37:24;;;;;;;10.77;3.60;;;;;;;19.52;100.00;101501.78;5286876;28;20036;-70
2023/08/08 08:39:55;;;;;;;14.15;3.53;;;;;;;19.36;100.00;101492.97;5287173;28;20016;-70
2023/08/08 08:42:27;;;;;;;14.38;3.88;;;;;;;18.99;100.00;101483.53;5287931;28;20027;-70
2023/08/08 08:44:59;;;;;;;9.10;2.85;;;;;;;18.90;100.00;101492.94;5287281;28;20407;-70
2023/08/08 08:47:31;;;;;;;10.43;3.53;;;;;;;18.88;100.00;101495.03;5286899;28;20027;-70
2023/08/08 08:50:03;;;;;;;13.88;3.40;;;;;;;18.97;100.00;101495.66;5286719;28;20059;-70
2023/08/08 08:52:33;;;;;;;13.90;3.45;;;;;;;18.91;100.00;101496.47;5286298;28;20179;-71
2023/08/08 08:55:05;;;;;;;12.50;3.50;;;;;;;18.94;100.00;101499.63;5274485;28;20107;-71
2023/08/08 08:57:36;;;;;;;11.77;3.33;;;;;;;19.02;100.00;101493.16;5286609;28;20102;-69
2023/08/08 09:00:07;;;;;;;12.20;4.15;;;;;;;19.02;100.00;101493.16;5286599;28;20102;-70
2023/08/08 09:02:38;;;;;;;7.65;3.30;;;;;;;18.87;100.00;101491.44;5287059;28;20442;-71
2023/08/08 09:05:10;;;;;;;10.07;3.38;;;;;;;18.96;100.00;101491.25;5268824;28;20047;-70
2023/08/08 09:07:41;;;;;;;12.60;3.42;;;;;;;19.04;100.00;101491.09;5286361;28;20076;-71
2023/08/08 09:10:15;;;;;;;7.80;2.92;;;;;;;18.99;100.00;101494.41;5277461;28;20031;-70
2023/08/08 09:12:46;;;;;;;13.38;4.22;;;;;;;19.06;100.00;101491.69;5272950;28;20110;-71
2023/08/08 09:15:17;;;;;;;10.43;3.75;;;;;;;19.24;100.00;101496.53;5286736;28;20026;-70
2023/08/08 09:17:48;;;;;;;13.00;3.50;;;;;;;19.45;100.00;101487.34;5286249;28;20024;-70
2023/08/08 09:20:19;;;;;;;13.45;3.97;;;;;;;19.60;100.00;101493.44;5286398;28;20067;-71
2023/08/08 09:22:52;;;;;;;7.97;3.40;;;;;;;19.54;100.00;101489.66;5276502;28;20144;-71
2023/08/08 09:25:24;;;;;;;11.10;3.80;;;;;;;19.27;100.00;101494.22;5269032;28;20398;-71
2023/08/08 09:27:55;;;;;;;13.85;4.25;;;;;;;19.11;100.00;101494.63;5286316;28;20102;-71
2023/08/08 09:30:26;;;;;;;12.00;4.63;;;;;;;19.15;100.00;101498.63;5286576;28;20024;-70
2023/08/08 09:33:00;;;;;;;10.25;3.53;;;;;;;19.41;100.00;101492.38;5286452;28;20576;-71
2023/08/08 09:35:31;;;;;;;12.85;3.72;;;;;;;19.33;100.00;101487.16;5285851;28;20433;-71
2023/08/08 09:38:02;;;;;;;9.25;3.15;;;;;;;19.46;100.00;101494.47;5286151;28;20059;-70
2023/08/08 09:40:32;;;;;;;11.55;3.50;;;;;;;19.67;100.00;101497.81;5286371;28;20031;-71
2023/08/08 09:43:03;;;;;;;14.20;3.70;;;;;;;19.59;100.00;101506.22;5270910;28;20032;-71
2023/08/08 09:45:49;;;;;;;11.00;3.40;;;;;;;19.45;100.00;101511.84;5274509;28;20339;-71
2023/08/08 09:48:20;;;;;;;12.63;3.63;;;;;;;19.41;100.00;101523.13;5285404;28;20035;-71
2023/08/08 09:50:51;;;;;;;12.00;3.72;;;;;;;19.31;100.00;101509.09;5285905;28;20039;-70
2023/08/08 09:53:22;;;;;;;7.40;3.22;;;;;;;19.14;100.00;101511.38;5278829;28;20024;-70
2023/08/08 09:55:55;;;;;;;16.20;4.15;;;;;;;19.01;100.00;101507.78;5279242;28;20019;-70
2023/08/08 09:58:25;;;;;;;7.63;3.03;;;;;;;18.83;100.00;101519.28;5286039;28;20073;-70
2023/08/08 10:00:56;;;;;;;7.47;3.08;;;;;;;18.73;100.00;101518.81;5285519;28;20432;-70
2023/08/08 10:03:28;;;;;;;11.73;3.67;;;;;;;18.54;100.00;101520.38;5286166;28;20019;-70
2023/08/08 10:05:59;;;;;;;10.77;3.75;;;;;;;18.60;100.00;101505.97;5271537;28;20029;-71
2023/08/08 10:08:30;;;;;;;6.68;3.33;;;;;;;18.84;100.00;101512.78;5285973;28;20038;-71
2023/08/08 10:11:01;;;;;;;10.20;3.53;;;;;;;18.88;100.00;101511.34;5285042;28;20026;-71
2023/08/08 10:13:32;;;;;;;10.15;3.90;;;;;;;18.98;100.00;101514.50;5285638;28;20023;-70
2023/08/08 10:16:08;;;;;;;12.85;4.00;;;;;;;19.10;100.00;101522.88;5285224;28;20023;-70
2023/08/08 10:18:38;;;;;;;11.40;3.85;;;;;;;19.31;100.00;101522.69;5285786;28;20011;-71
2023/08/08 10:21:10;;;;;;;10.48;3.42;;;;;;;19.57;100.00;101515.59;5285644;28;20041;-71
2023/08/08 10:23:40;;;;;;;7.45;3.10;;;;;;;19.80;100.00;101518.75;5285663;28;20038;-71
2023/08/08 10:26:19;;;;;;;7.82;3.60;;;;;;;19.75;100.00;101529.44;5285505;28;20023;-71
2023/08/08 10:29:17;;;;;;;13.95;3.60;;;;;;;19.73;100.00;101523.38;5279655;28;20415;-70
2023/08/08 10:32:04;;;;;;;11.32;3.17;;;;;;;19.82;100.00;101522.09;5267760;28;20106;-71
2023/08/08 10:34:38;;;;;;;9.57;2.88;;;;;;;19.87;100.00;101510.59;5285643;28;20027;-71
2023/08/08 10:37:24;;;;;;;17.00;3.35;;;;;;;19.89;100.00;101513.94;5264229;28;20301;-71
2023/08/08 10:39:59;;;;;;;7.95;2.95;;;;;;;19.86;100.00;101496.13;5281557;28;20477;-71
2023/08/08 10:42:30;;;;;;;9.35;3.30;;;;;;;19.85;100.00;101509.97;5285203;28;20028;-71
2023/08/08 10:45:02;;;;;;;5.32;2.67;;;;;;;19.80;100.00;101507.88;5285424;28;20111;-71
2023/08/08 10:47:35;;;;;;;6.93;2.78;;;;;;;19.70;100.00;101496.56;5284911;28;20043;-71
2023/08/08 10:50:08;;;;;;;9.82;3.53;;;;;;;20.05;100.00;101504.50;5285112;28;20028;-71
2023/08/08 10:52:51;;;;;;;6.35;2.92;;;;;;;20.33;100.00;101485.09;5283098;28;20411;-71
2023/08/08 10:55:26;;;;;;;6.88;2.80;;;;;;;20.68;100.00;101474.72;5264548;28;20047;-71
2023/08/08 10:58:19;;;;;;;9.23;3.47;;;;;;;21.01;100.00;101482.72;5284325;28;20026;-71
2023/08/08 11:00:51;;;;;;;12.02;3.28;;;;;;;20.79;100.00;101481.38;5265704;28;20389;-73
2023/08/08 11:03:23;;;;;;;7.90;2.78;;;;;;;20.64;100.00;101479.78;5264045;28;20019;-73
2023/08/08 11:05:54;;;;;;;13.40;3.38;;;;;;;20.30;100.00;101471.94;5288194;28;20027;-72
2023/08/08 11:08:25;;;;;;;8.82;3.53;;;;;;;20.38;100.00;101479.84;5286695;28;20039;-73
2023/08/08 11:10:56;;;;;;;9.48;3.65;;;;;;;20.80;100.00;101478.44;5288026;28;20020;-73
2023/08/08 11:13:26;;;;;;;7.90;3.35;;;;;;;21.05;100.00;101488.56;5288739;28;20035;-73
2023/08/08 11:15:57;;;;;;;6.95;3.05;;;;;;;20.97;100.00;101488.81;5291584;27;20031;-73
2023/08/08 11:18:28;;;;;;;12.02;3.53;;;;;;;20.57;100.00;101483.59;5288251;28;20114;-73
2023/08/08 11:20:59;;;;;;;4.95;2.90;;;;;;;20.45;100.00;101477.94;5288211;28;20027;-73
2023/08/08 11:23:29;;;;;;;5.55;3.55;;;;;;;20.36;100.00;101480.06;5288083;28;20031;-73
2023/08/08 11:26:01;;;;;;;7.40;3.10;;;;;;;20.21;100.00;101475.94;5287852;27;20064;-73
2023/08/08 11:28:32;;;;;;;7.57;3.35;;;;;;;20.22;100.00;101475.72;5288256;28;20029;-73
2023/08/08 11:31:02;;;;;;;7.32;3.10;;;;;;;20.09;100.00;101470.34;5287029;28;20028;-73